Time;durP1;ratioP1;P1;durP2;ratioP2;P2;SDS_P1;SDS_P2;PMS_P1;PMS_P2;Temp;Humidity;BMP_temperature;BMP_pressure;BME280_temperature;BME280_humidity;BME280_pressure;Samples;Min_cycle;Max_cycle;Signal;HPM_P1;HPM_P2
2022/06/13 00:00:19;;;;;;;1.95;0.60;;;22.60;59.60;;;;;;5072091;28;20052;-19
2022/06/13 00:02:44;;;;;;;1.38;0.60;;;22.60;59.70;;;;;;5086534;28;20044;-19
2022/06/13 00:05:10;;;;;;;2.70;1.05;;;22.60;59.50;;;;;;5074361;28;20048;-19
2022/06/13 00:07:36;;;;;;;0.95;0.80;;;22.60;59.60;;;;;;5075177;28;20063;-19
2022/06/13 00:10:01;;;;;;;2.15;0.90;;;22.70;59.80;;;;;;5085483;28;20036;-20
2022/06/13 00:12:27;;;;;;;1.40;0.80;;;22.60;59.70;;;;;;5074196;28;20123;-20
2022/06/13 00:14:53;;;;;;;1.40;0.70;;;22.60;59.80;;;;;;5071149;28;20064;-19
2022/06/13 00:17:18;;;;;;;2.80;0.65;;;22.60;59.90;;;;;;5070086;28;20040;-19
2022/06/13 00:19:44;;;;;;;1.30;0.60;;;22.50;60.00;;;;;;5086938;28;20505;-19
2022/06/13 00:22:09;;;;;;;1.25;0.70;;;22.50;60.70;;;;;;5059865;28;20040;-19
2022/06/13 00:24:35;;;;;;;1.42;0.70;;;22.60;60.10;;;;;;5066148;28;20063;-19
2022/06/13 00:27:01;;;;;;;0.88;0.82;;;22.60;60.10;;;;;;5080253;28;20049;-20
2022/06/13 00:29:26;;;;;;;1.48;0.80;;;22.60;61.00;;;;;;5089313;28;20040;-20
2022/06/13 00:31:52;;;;;;;0.90;0.63;;;22.60;60.10;;;;;;5074715;28;20485;-21
2022/06/13 00:34:18;;;;;;;1.40;1.00;;;22.60;60.20;;;;;;5079309;28;20040;-20
2022/06/13 00:36:43;;;;;;;0.75;0.75;;;22.60;60.50;;;;;;5080367;28;20078;-19
2022/06/13 00:39:09;;;;;;;0.70;0.70;;;22.60;60.20;;;;;;5076795;28;20043;-21
2022/06/13 00:41:36;;;;;;;1.35;0.90;;;22.60;60.40;;;;;;5083079;28;20074;-20
2022/06/13 00:44:01;;;;;;;1.73;0.98;;;22.60;60.70;;;;;;5072395;28;20036;-19
2022/06/13 00:46:32;;;;;;;1.05;0.60;;;22.60;61.30;;;;;;5075060;28;20041;-19
2022/06/13 00:49:39;;;;;;;1.30;0.93;;;22.60;60.50;;;;;;5083851;28;20063;-20
2022/06/13 00:52:11;;;;;;;1.02;0.90;;;22.60;60.50;;;;;;5062946;28;20063;-21
2022/06/13 00:54:36;;;;;;;1.05;0.57;;;22.60;60.80;;;;;;5083039;28;20044;-20
2022/06/13 00:57:03;;;;;;;0.73;0.70;;;22.60;60.60;;;;;;5054073;28;20041;-21
2022/06/13 00:59:29;;;;;;;1.40;1.00;;;22.60;60.60;;;;;;5046276;28;20039;-19
2022/06/13 01:01:55;;;;;;;1.48;0.70;;;22.60;60.90;;;;;;5056428;28;20492;-20
2022/06/13 01:04:20;;;;;;;0.95;0.75;;;22.50;60.90;;;;;;5085577;28;20068;-19
2022/06/13 01:06:47;;;;;;;2.13;0.70;;;22.60;60.90;;;;;;5074695;28;20042;-20
2022/06/13 01:09:16;;;;;;;1.27;1.27;;;22.60;61.00;;;;;;5038960;28;20079;-18
2022/06/13 01:11:45;;;;;;;1.05;1.05;;;22.50;60.80;;;;;;5079133;28;20065;-19
2022/06/13 01:14:34;;;;;;;1.02;0.95;;;22.60;61.10;;;;;;5062716;28;20068;-18
2022/06/13 01:17:27;;;;;;;0.75;0.70;;;22.50;60.80;;;;;;5055871;28;20070;-19
2022/06/13 01:20:17;;;;;;;0.60;0.60;;;22.60;60.90;;;;;;5075514;28;20040;-24
2022/06/13 01:22:49;;;;;;;2.25;0.90;;;22.50;61.00;;;;;;5083272;28;20048;-19
2022/06/13 01:25:46;;;;;;;0.68;0.60;;;22.50;61.30;;;;;;5069390;28;20166;-19
2022/06/13 01:28:20;;;;;;;0.70;0.68;;;22.50;61.50;;;;;;5074093;28;20044;-20
2022/06/13 01:31:10;;;;;;;2.00;0.77;;;22.50;61.30;;;;;;5063055;28;20059;-20
2022/06/13 01:33:42;;;;;;;1.45;0.80;;;22.50;61.10;;;;;;5072771;28;20051;-23
2022/06/13 01:36:30;;;;;;;1.05;0.95;;;22.50;60.90;;;;;;5061660;28;20513;-20
2022/06/13 01:39:11;;;;;;;0.68;0.68;;;22.50;61.10;;;;;;5067539;28;20124;-20
2022/06/13 01:41:55;;;;;;;3.03;1.10;;;22.50;61.00;;;;;;5074714;28;20516;-20
2022/06/13 01:44:57;;;;;;;2.17;1.23;;;22.50;61.20;;;;;;5038746;28;20056;-20
2022/06/13 01:47:33;;;;;;;0.80;0.80;;;22.50;61.40;;;;;;5018817;28;20114;-19
2022/06/13 01:50:28;;;;;;;0.63;0.60;;;22.50;61.50;;;;;;5046126;28;20493;-20
2022/06/13 01:53:12;;;;;;;0.70;0.70;;;22.50;61.70;;;;;;5055686;28;20040;-19
2022/06/13 01:55:46;;;;;;;0.80;0.80;;;22.50;61.30;;;;;;5068026;28;20101;-20
2022/06/13 01:58:35;;;;;;;2.10;0.80;;;22.50;61.40;;;;;;5048796;28;20037;-21
2022/06/13 02:01:07;;;;;;;0.75;0.73;;;22.50;61.30;;;;;;5024847;28;20057;-21
2022/06/13 02:03:39;;;;;;;1.27;0.85;;;22.50;61.50;;;;;;5040091;28;20044;-20
2022/06/13 02:06:10;;;;;;;0.60;0.60;;;22.50;61.30;;;;;;5039524;28;20040;-20
2022/06/13 02:08:38;;;;;;;1.00;0.60;;;22.50;61.40;;;;;;5050215;28;20049;-20
2022/06/13 02:11:10;;;;;;;0.70;0.60;;;22.50;62.30;;;;;;5039535;28;20047;-20
2022/06/13 02:13:48;;;;;;;1.02;0.68;;;22.50;61.30;;;;;;5069933;28;20040;-19
2022/06/13 02:16:20;;;;;;;0.75;0.63;;;22.50;61.40;;;;;;5058033;28;20044;-20
2022/06/13 02:18:53;;;;;;;0.55;0.55;;;22.50;61.40;;;;;;5062528;28;20451;-20
2022/06/13 02:21:19;;;;;;;1.25;0.70;;;22.50;61.40;;;;;;5075516;28;20119;-19
2022/06/13 02:23:47;;;;;;;0.93;0.65;;;22.40;61.40;;;;;;5055544;28;20072;-20
2022/06/13 02:26:22;;;;;;;1.10;0.75;;;22.50;61.40;;;;;;5075103;28;20037;-20
2022/06/13 02:28:59;;;;;;;0.30;0.30;;;22.50;61.40;;;;;;5057344;28;20535;-20
2022/06/13 02:31:59;;;;;;;0.73;0.50;;;22.40;61.50;;;;;;5044934;28;20052;-20
2022/06/13 02:34:27;;;;;;;1.63;0.60;;;22.40;61.50;;;;;;5061843;28;20128;-19
2022/06/13 02:37:18;;;;;;;0.73;0.50;;;22.40;61.60;;;;;;5068504;28;20032;-20
2022/06/13 02:39:52;;;;;;;0.50;0.50;;;22.40;61.50;;;;;;5068051;28;20558;-18
2022/06/13 02:42:19;;;;;;;1.00;0.52;;;22.40;61.60;;;;;;5037678;28;20052;-18
2022/06/13 02:44:57;;;;;;;0.47;0.47;;;22.40;61.60;;;;;;5070236;28;20039;-20
2022/06/13 02:47:27;;;;;;;0.45;0.40;;;22.40;61.60;;;;;;5059325;28;20041;-19
2022/06/13 02:50:03;;;;;;;0.80;0.60;;;22.40;61.60;;;;;;5059305;28;20132;-20
2022/06/13 02:52:55;;;;;;;0.63;0.32;;;22.40;61.60;;;;;;5059758;28;20051;-20
2022/06/13 02:55:21;;;;;;;0.40;0.40;;;22.40;61.60;;;;;;5025256;28;20132;-21
2022/06/13 02:58:21;;;;;;;0.57;0.40;;;22.40;61.60;;;;;;5028393;28;20068;-19
2022/06/13 03:00:56;;;;;;;1.50;0.70;;;22.40;61.60;;;;;;5038548;28;20048;-20
2022/06/13 03:03:31;;;;;;;0.55;0.55;;;22.40;61.60;;;;;;5074347;28;20120;-19
2022/06/13 03:06:23;;;;;;;1.08;0.77;;;22.40;61.60;;;;;;5075145;28;20040;-18
2022/06/13 03:09:25;;;;;;;0.60;0.35;;;22.40;61.50;;;;;;5056277;28;20156;-20
2022/06/13 03:12:14;;;;;;;0.50;0.50;;;22.40;61.50;;;;;;5063687;28;20040;-19
2022/06/13 03:15:20;;;;;;;0.68;0.40;;;22.40;61.60;;;;;;5062643;28;20048;-19
2022/06/13 03:17:51;;;;;;;0.63;0.43;;;22.40;61.60;;;;;;5021870;28;20091;-19
2022/06/13 03:20:45;;;;;;;0.40;0.40;;;22.40;61.60;;;;;;5075574;28;20051;-20
2022/06/13 03:23:21;;;;;;;0.63;0.60;;;22.40;61.50;;;;;;5059505;28;20036;-20
2022/06/13 03:25:55;;;;;;;0.70;0.68;;;22.30;61.60;;;;;;5051685;28;20430;-19
2022/06/13 03:28:26;;;;;;;0.52;0.47;;;22.30;61.70;;;;;;5039620;28;20036;-19
2022/06/13 03:30:55;;;;;;;0.60;0.55;;;22.30;61.60;;;;;;5061026;28;20506;-19
2022/06/13 03:33:42;;;;;;;0.70;0.70;;;22.30;61.60;;;;;;5034823;28;20464;-19
2022/06/13 03:36:17;;;;;;;2.28;0.50;;;22.30;61.50;;;;;;5045067;28;20588;-20
2022/06/13 03:38:49;;;;;;;0.40;0.40;;;22.30;61.50;;;;;;5059544;28;20044;-19
2022/06/13 03:41:16;;;;;;;0.40;0.40;;;22.30;61.50;;;;;;5061265;28;20113;-20
2022/06/13 03:44:07;;;;;;;0.45;0.40;;;22.30;61.50;;;;;;5056800;28;20044;-22
2022/06/13 03:46:38;;;;;;;0.75;0.57;;;22.30;61.50;;;;;;5020589;28;20045;-20
2022/06/13 03:49:21;;;;;;;0.57;0.57;;;22.30;61.70;;;;;;5044861;28;20098;-21
2022/06/13 03:51:48;;;;;;;0.63;0.43;;;22.30;61.60;;;;;;5065868;28;20041;-20
2022/06/13 03:54:27;;;;;;;0.65;0.65;;;22.30;61.70;;;;;;5056645;28;20051;-19
2022/06/13 03:57:03;;;;;;;0.70;0.70;;;22.30;61.60;;;;;;5057373;28;20045;-20
2022/06/13 03:59:38;;;;;;;0.60;0.60;;;22.30;61.50;;;;;;5041112;28;20444;-21
2022/06/13 04:02:07;;;;;;;0.65;0.60;;;22.30;61.80;;;;;;5026296;28;20033;-19
2022/06/13 04:04:41;;;;;;;0.35;0.35;;;22.30;61.50;;;;;;5047024;28;20414;-19
2022/06/13 04:07:07;;;;;;;0.50;0.50;;;22.30;61.70;;;;;;5047169;28;20040;-19
2022/06/13 04:10:03;;;;;;;0.50;0.50;;;22.30;61.70;;;;;;5072857;28;20047;-19
2022/06/13 04:13:04;;;;;;;0.40;0.40;;;22.30;61.50;;;;;;5033780;28;20405;-20
2022/06/13 04:15:36;;;;;;;1.02;0.70;;;22.30;61.50;;;;;;5062753;28;20093;-23
2022/06/13 04:18:14;;;;;;;0.40;0.40;;;22.30;61.60;;;;;;5048635;28;20067;-19
2022/06/13 04:21:03;;;;;;;0.60;0.60;;;22.30;61.50;;;;;;5059590;28;20094;-20
2022/06/13 04:23:29;;;;;;;0.43;0.40;;;22.30;61.50;;;;;;5058937;28;20055;-20
2022/06/13 04:25:55;;;;;;;0.57;0.50;;;22.30;61.50;;;;;;5057414;28;20036;-20
2022/06/13 04:28:39;;;;;;;0.68;0.57;;;22.20;61.60;;;;;;5074335;28;20390;-19
2022/06/13 04:31:04;;;;;;;0.50;0.50;;;22.20;61.60;;;;;;5075996;28;20059;-20
2022/06/13 04:33:52;;;;;;;0.55;0.50;;;22.30;61.50;;;;;;5054752;28;20665;-19
2022/06/13 04:36:17;;;;;;;0.70;0.40;;;22.30;61.50;;;;;;5032251;28;20048;-21
2022/06/13 04:38:51;;;;;;;0.70;0.70;;;22.30;61.60;;;;;;5065308;28;20044;-21
2022/06/13 04:41:18;;;;;;;0.50;0.50;;;22.30;61.60;;;;;;5033870;28;20040;-19
2022/06/13 04:43:46;;;;;;;0.75;0.70;;;22.20;61.50;;;;;;5057231;28;20047;-19
2022/06/13 04:46:16;;;;;;;0.70;0.70;;;22.20;61.50;;;;;;5058126;28;20071;-20
2022/06/13 04:48:43;;;;;;;0.50;0.50;;;22.30;61.50;;;;;;5054580;28;20049;-19
2022/06/13 04:51:11;;;;;;;0.38;0.38;;;22.30;61.60;;;;;;5055319;28;20040;-19
2022/06/13 04:53:39;;;;;;;0.63;0.60;;;22.30;61.40;;;;;;5026577;28;20049;-19
2022/06/13 04:56:05;;;;;;;0.43;0.43;;;22.30;61.50;;;;;;5042602;28;20052;-19
2022/06/13 04:58:32;;;;;;;0.75;0.75;;;22.30;61.50;;;;;;5054719;28;20041;-20
2022/06/13 05:01:09;;;;;;;1.13;0.60;;;22.30;61.20;;;;;;5061924;28;20044;-18
2022/06/13 05:03:41;;;;;;;1.48;1.20;;;22.30;60.20;;;;;;5043556;28;20036;-20
2022/06/13 05:06:13;;;;;;;1.70;1.50;;;22.10;57.50;;;;;;5077842;28;20050;-20
2022/06/13 05:08:40;;;;;;;4.40;2.20;;;21.80;55.90;;;;;;5045271;28;20417;-22
2022/06/13 05:11:27;;;;;;;3.88;2.35;;;21.40;55.90;;;;;;5073141;28;20417;-24
2022/06/13 05:13:55;;;;;;;4.57;2.45;;;21.00;57.00;;;;;;5089183;28;20051;-21
2022/06/13 05:16:40;;;;;;;2.83;2.00;;;20.80;57.50;;;;;;5072622;28;20499;-21
2022/06/13 05:19:10;;;;;;;;;;;20.50;58.40;;;;;;5077075;28;20062;-22
2022/06/13 05:21:39;;;;;;;5.53;2.58;;;20.40;58.50;;;;;;5043994;28;19994;-20
2022/06/13 05:24:45;;;;;;;4.45;2.63;;;20.30;59.00;;;;;;5062873;28;20544;-20
2022/06/13 05:27:11;;;;;;;4.93;2.28;;;20.20;59.00;;;;;;4985878;28;20049;-21
2022/06/13 05:29:36;;;;;;;5.90;2.63;;;20.20;59.20;;;;;;4645918;28;10000132;-22
2022/06/13 05:32:06;;;;;;;3.63;1.98;;;20.10;59.10;;;;;;5039087;28;20047;-20
2022/06/13 05:34:41;;;;;;;5.10;2.30;;;20.00;59.30;;;;;;5062039;28;20582;-21
2022/06/13 05:37:07;;;;;;;4.75;2.38;;;19.90;59.10;;;;;;5075260;28;20689;-21
2022/06/13 05:39:34;;;;;;;5.95;2.80;;;19.70;59.90;;;;;;5083608;28;20532;-20
2022/06/13 05:41:59;;;;;;;4.05;2.17;;;19.60;60.00;;;;;;5080462;28;20485;-19
2022/06/13 05:44:25;;;;;;;2.80;1.95;;;19.50;60.30;;;;;;5062519;28;20390;-20
2022/06/13 05:46:51;;;;;;;4.88;2.50;;;19.50;60.40;;;;;;5066743;28;20040;-19
2022/06/13 05:49:17;;;;;;;5.40;2.28;;;19.30;60.70;;;;;;5065199;28;20041;-20
2022/06/13 05:51:43;;;;;;;3.13;2.35;;;19.40;60.80;;;;;;5064618;28;20404;-19
2022/06/13 05:54:09;;;;;;;5.32;1.58;;;19.50;60.60;;;;;;5067229;28;20124;-20
2022/06/13 05:56:36;;;;;;;4.78;2.22;;;19.70;59.90;;;;;;5076172;28;20135;-20
2022/06/13 05:59:01;;;;;;;3.83;1.85;;;19.90;59.50;;;;;;5060161;28;20416;-21
2022/06/13 06:01:27;;;;;;;2.60;1.48;;;20.10;59.30;;;;;;5074708;28;20048;-20
2022/06/13 06:03:52;;;;;;;2.78;1.75;;;20.10;59.20;;;;;;5071857;28;20179;-21
2022/06/13 06:06:25;;;;;;;3.85;1.50;;;20.20;59.00;;;;;;5072411;28;20044;-19
2022/06/13 06:08:54;;;;;;;2.72;2.00;;;20.30;59.10;;;;;;5071193;28;21481;-23
2022/06/13 06:11:20;;;;;;;2.50;1.40;;;20.30;59.10;;;;;;5072851;28;20098;-20
2022/06/13 06:13:46;;;;;;;2.88;1.48;;;20.40;59.00;;;;;;5071649;28;20446;-20
2022/06/13 06:16:15;;;;;;;2.30;1.58;;;20.40;59.00;;;;;;5064964;28;20040;-20
2022/06/13 06:18:41;;;;;;;2.33;1.70;;;20.50;58.90;;;;;;5078270;28;20048;-19
2022/06/13 06:21:06;;;;;;;2.97;1.58;;;20.50;59.00;;;;;;5073615;28;20043;-18
2022/06/13 06:23:32;;;;;;;2.55;1.58;;;20.50;58.90;;;;;;5071583;28;20147;-20
2022/06/13 06:25:58;;;;;;;2.38;1.33;;;20.50;59.00;;;;;;5070564;28;20048;-19
2022/06/13 06:28:25;;;;;;;2.25;1.60;;;20.50;58.90;;;;;;5067191;28;20045;-19
2022/06/13 06:30:51;;;;;;;4.18;1.55;;;20.50;58.90;;;;;;5073114;28;20048;-19
2022/06/13 06:33:17;;;;;;;1.83;1.30;;;20.60;58.90;;;;;;5070717;28;20059;-19
2022/06/13 06:35:42;;;;;;;3.30;1.65;;;20.60;59.00;;;;;;5074653;28;20049;-19
2022/06/13 06:38:09;;;;;;;2.55;1.40;;;20.60;58.90;;;;;;5073559;28;20104;-20
2022/06/13 06:40:35;;;;;;;3.33;1.75;;;20.70;59.00;;;;;;5075442;28;20044;-20
2022/06/13 06:43:01;;;;;;;1.77;1.50;;;20.70;58.80;;;;;;5073946;28;20042;-19
2022/06/13 06:45:26;;;;;;;1.60;1.45;;;20.70;58.90;;;;;;5065519;28;20524;-20
2022/06/13 06:47:53;;;;;;;2.08;1.38;;;20.80;59.70;;;;;;5067468;28;20095;-21
2022/06/13 06:50:26;;;;;;;2.80;1.40;;;20.80;59.10;;;;;;5069837;28;20033;-20
2022/06/13 06:52:52;;;;;;;1.90;1.27;;;20.80;59.00;;;;;;5064921;28;20033;-21
2022/06/13 07:00:49;;;;;;;;;;;20.90;59.10;;;;;;5062828;28;20519;-20
2022/06/13 07:03:15;;;;;;;1.42;1.10;;;21.00;59.30;;;;;;5061207;28;19974;-20
2022/06/13 07:05:40;;;;;;;1.75;1.10;;;21.10;59.60;;;;;;5072271;28;20049;-20
2022/06/13 07:08:06;;;;;;;1.88;1.40;;;21.10;60.50;;;;;;5069696;28;20100;-19
2022/06/13 07:10:32;;;;;;;2.38;1.90;;;21.20;60.40;;;;;;4704173;28;9999818;-20
2022/06/13 07:12:57;;;;;;;1.60;1.50;;;21.20;60.80;;;;;;5059056;28;20040;-19
2022/06/13 07:15:23;;;;;;;3.13;1.15;;;21.30;61.00;;;;;;5053873;28;20072;-19
2022/06/13 07:17:48;;;;;;;2.45;1.48;;;21.30;60.90;;;;;;5063312;28;20048;-20
2022/06/13 07:20:14;;;;;;;3.13;1.55;;;21.40;61.00;;;;;;5058878;28;20052;-19
2022/06/13 07:22:47;;;;;;;2.08;1.30;;;21.40;61.00;;;;;;5060395;28;20056;-20
2022/06/13 07:25:17;;;;;;;3.22;1.80;;;21.40;60.90;;;;;;5050011;28;20075;-19
2022/06/13 07:27:43;;;;;;;1.63;0.98;;;21.40;60.50;;;;;;5061112;28;20072;-18
2022/06/13 07:30:10;;;;;;;2.33;1.30;;;21.40;60.40;;;;;;5067045;28;20049;-20
2022/06/13 07:32:35;;;;;;;1.38;1.20;;;21.40;60.50;;;;;;5064834;28;20052;-19
2022/06/13 07:35:02;;;;;;;1.58;0.98;;;21.40;60.30;;;;;;5066586;28;20120;-19
2022/06/13 07:40:12;;;;;;;;;;;21.50;60.10;;;;;;5061580;28;20136;-19
2022/06/13 07:42:47;;;;;;;2.35;1.30;;;21.50;60.00;;;;;;5060676;28;19956;-21
2022/06/13 07:45:16;;;;;;;1.92;1.20;;;21.50;59.70;;;;;;5059174;28;20139;-21
2022/06/13 07:47:42;;;;;;;1.27;1.08;;;21.50;59.90;;;;;;5037838;28;20461;-21
2022/06/13 07:50:10;;;;;;;1.45;1.05;;;21.50;60.00;;;;;;5056385;28;20127;-20
2022/06/13 07:52:35;;;;;;;1.50;0.90;;;21.50;60.00;;;;;;5069497;28;20497;-19
2022/06/13 07:55:01;;;;;;;2.63;1.40;;;21.50;60.00;;;;;;5060177;28;20409;-22
2022/06/13 07:57:27;;;;;;;1.10;1.00;;;21.60;60.00;;;;;;5058150;28;20052;-19
2022/06/13 07:59:52;;;;;;;1.10;1.00;;;21.60;59.90;;;;;;5057419;28;20052;-20
2022/06/13 08:02:18;;;;;;;4.15;1.10;;;21.60;59.80;;;;;;5068920;28;20075;-19
2022/06/13 08:04:44;;;;;;;1.40;1.08;;;21.60;59.60;;;;;;5063843;28;20448;-20
2022/06/13 08:07:10;;;;;;;1.13;1.02;;;21.70;59.70;;;;;;5068599;28;20060;-19
2022/06/13 08:09:37;;;;;;;1.05;0.93;;;21.70;59.60;;;;;;5060771;28;20056;-19
2022/06/13 08:12:03;;;;;;;1.75;1.08;;;21.70;59.60;;;;;;5063076;28;20028;-21
2022/06/13 08:14:28;;;;;;;0.90;0.90;;;21.70;59.60;;;;;;5056289;28;20655;-19
2022/06/13 08:16:55;;;;;;;1.08;0.75;;;21.80;59.40;;;;;;5058206;28;20037;-19
2022/06/13 08:19:21;;;;;;;1.20;1.10;;;21.80;59.50;;;;;;5068976;28;20035;-20
2022/06/13 08:21:46;;;;;;;5.60;1.20;;;21.80;59.70;;;;;;5068903;28;20052;-19
2022/06/13 08:24:12;;;;;;;1.10;1.00;;;21.80;61.10;;;;;;5050322;28;20049;-19
2022/06/13 08:26:37;;;;;;;1.45;1.00;;;21.80;59.90;;;;;;5046624;28;20050;-20
2022/06/13 08:29:04;;;;;;;1.20;1.10;;;21.90;59.80;;;;;;5048037;28;20411;-19
2022/06/13 08:31:29;;;;;;;1.95;1.48;;;22.00;59.90;;;;;;5041390;28;20046;-19
2022/06/13 08:33:55;;;;;;;3.42;1.38;;;21.90;60.80;;;;;;5032096;28;20445;-19
2022/06/13 08:36:21;;;;;;;8.23;1.42;;;21.90;60.60;;;;;;5044849;28;20056;-20
2022/06/13 08:38:46;;;;;;;1.35;1.00;;;21.90;60.40;;;;;;5040931;28;20044;-19
2022/06/13 08:41:15;;;;;;;1.52;1.33;;;21.90;60.60;;;;;;5047165;28;20480;-21
2022/06/13 08:44:01;;;;;;;2.90;1.20;;;21.90;60.90;;;;;;5043923;28;20049;-18
2022/06/13 08:46:32;;;;;;;5.63;1.42;;;21.90;60.40;;;;;;5046831;28;20059;-19
2022/06/13 08:49:06;;;;;;;2.38;1.30;;;22.00;60.10;;;;;;5044717;28;20497;-19
2022/06/13 08:51:40;;;;;;;2.05;1.10;;;22.00;60.70;;;;;;5013042;28;20041;-19
2022/06/13 08:54:07;;;;;;;2.70;1.40;;;22.00;60.90;;;;;;5015328;28;20069;-20
2022/06/13 08:56:34;;;;;;;3.75;2.00;;;21.90;60.90;;;;;;5026070;28;20146;-20
2022/06/13 08:59:22;;;;;;;1.92;0.98;;;21.90;61.10;;;;;;5037839;28;20037;-21
2022/06/13 09:01:48;;;;;;;2.78;1.30;;;21.90;61.10;;;;;;5028704;28;20297;-18
2022/06/13 09:04:34;;;;;;;1.80;0.90;;;21.90;61.10;;;;;;5026177;28;20036;-20
2022/06/13 09:07:17;;;;;;;1.05;0.80;;;22.00;60.40;;;;;;5024650;28;20051;-18
2022/06/13 09:10:05;;;;;;;1.95;1.10;;;22.00;61.20;;;;;;5052929;28;20053;-19
2022/06/13 09:12:45;;;;;;;2.45;1.20;;;22.00;61.20;;;;;;5048354;28;20041;-20
2022/06/13 09:15:17;;;;;;;2.42;0.95;;;22.00;61.20;;;;;;5053146;28;20033;-22
2022/06/13 09:17:45;;;;;;;3.95;1.00;;;22.00;61.20;;;;;;5032000;28;20045;-19
2022/06/13 09:20:17;;;;;;;0.75;0.75;;;22.00;61.20;;;;;;5044080;28;20379;-21
2022/06/13 09:22:54;;;;;;;1.73;0.90;;;22.00;61.20;;;;;;5026703;28;20589;-18
2022/06/13 09:25:25;;;;;;;2.83;0.88;;;22.00;61.30;;;;;;5076576;28;20041;-23
2022/06/13 09:27:54;;;;;;;1.88;0.90;;;22.00;61.00;;;;;;5044850;28;20048;-20
2022/06/13 09:30:36;;;;;;;1.05;0.95;;;22.10;61.10;;;;;;5068334;28;20040;-21
2022/06/13 09:33:15;;;;;;;1.42;0.90;;;22.00;61.10;;;;;;5064504;28;20041;-20
2022/06/13 09:36:10;;;;;;;1.55;0.75;;;22.10;61.40;;;;;;5052736;28;20101;-19
2022/06/13 09:38:39;;;;;;;2.38;0.90;;;22.10;61.10;;;;;;5053790;28;20123;-20
2022/06/13 09:41:31;;;;;;;1.52;0.80;;;22.10;61.30;;;;;;5053980;28;20086;-21
2022/06/13 09:44:20;;;;;;;2.13;0.77;;;22.10;60.90;;;;;;5066667;28;20048;-19
2022/06/13 09:47:08;;;;;;;1.38;1.10;;;22.10;61.10;;;;;;5038772;28;20029;-18
2022/06/13 09:49:45;;;;;;;2.33;0.75;;;22.10;61.00;;;;;;5064213;28;20512;-22
2022/06/13 09:52:26;;;;;;;1.38;1.00;;;22.10;60.70;;;;;;5063109;28;20346;-20
2022/06/13 09:55:00;;;;;;;1.13;1.05;;;22.10;60.80;;;;;;5071988;28;20052;-20
2022/06/13 09:58:08;;;;;;;1.73;1.27;;;22.20;60.50;;;;;;5069839;28;20139;-21
2022/06/13 10:00:45;;;;;;;0.75;0.75;;;22.20;60.30;;;;;;5007398;28;20096;-18
2022/06/13 10:03:22;;;;;;;0.98;0.88;;;22.20;60.00;;;;;;5013136;28;20485;-19
2022/06/13 10:05:54;;;;;;;2.33;1.15;;;22.20;59.90;;;;;;5046193;28;20053;-19
2022/06/13 10:08:33;;;;;;;0.90;0.80;;;22.20;60.00;;;;;;5046008;28;20037;-19
2022/06/13 10:11:08;;;;;;;1.33;1.00;;;22.20;60.00;;;;;;5071076;28;20048;-21
2022/06/13 10:13:37;;;;;;;1.30;0.68;;;22.20;60.30;;;;;;5046739;28;20469;-20
2022/06/13 10:16:21;;;;;;;2.03;1.00;;;22.20;60.00;;;;;;5057048;28;20660;-19
2022/06/13 10:19:07;;;;;;;2.20;1.23;;;22.20;60.20;;;;;;5065262;28;20110;-19
2022/06/13 10:21:51;;;;;;;1.17;1.02;;;22.20;59.80;;;;;;5068625;28;20056;-20
2022/06/13 10:24:32;;;;;;;1.02;0.90;;;22.20;59.60;;;;;;5056556;28;20504;-19
2022/06/13 10:27:09;;;;;;;2.03;1.10;;;22.30;59.70;;;;;;5061762;28;20641;-19
2022/06/13 10:29:45;;;;;;;2.33;0.98;;;22.30;59.40;;;;;;5047749;28;20635;-20
2022/06/13 10:32:48;;;;;;;1.02;0.68;;;22.20;59.40;;;;;;5068756;28;20047;-21
2022/06/13 10:35:39;;;;;;;1.33;1.08;;;22.20;59.40;;;;;;5063853;28;20048;-19
2022/06/13 10:38:19;;;;;;;1.92;0.85;;;22.20;59.40;;;;;;5030937;28;20051;-19
2022/06/13 10:40:45;;;;;;;1.50;1.02;;;22.20;59.30;;;;;;5044030;28;20052;-20
2022/06/13 10:43:11;;;;;;;3.08;0.90;;;22.20;59.20;;;;;;5051678;28;20048;-19
2022/06/13 10:45:36;;;;;;;1.10;1.00;;;22.20;59.00;;;;;;5064761;28;20072;-19
2022/06/13 10:48:55;;;;;;;1.88;0.90;;;22.20;59.00;;;;;;5040158;28;20118;-21
2022/06/13 10:51:22;;;;;;;1.50;0.90;;;22.20;58.90;;;;;;5028801;28;20040;-18
2022/06/13 10:53:57;;;;;;;1.13;1.02;;;22.20;58.60;;;;;;5063026;28;20064;-19
2022/06/13 10:56:35;;;;;;;2.08;1.10;;;22.20;58.40;;;;;;5054075;28;20127;-20
2022/06/13 10:59:00;;;;;;;1.40;0.90;;;22.20;58.40;;;;;;5031396;28;20057;-18
2022/06/13 11:01:30;;;;;;;2.20;0.98;;;22.20;58.00;;;;;;5066299;28;20051;-18
2022/06/13 11:04:02;;;;;;;1.67;0.75;;;22.20;58.40;;;;;;5054724;28;20063;-19
2022/06/13 11:06:41;;;;;;;0.93;0.90;;;22.30;58.50;;;;;;5067661;28;20053;-19
2022/06/13 11:09:42;;;;;;;0.95;0.70;;;22.30;59.00;;;;;;5044464;28;20389;-19
2022/06/13 11:12:30;;;;;;;1.38;0.93;;;22.30;58.30;;;;;;5045795;28;20041;-20
2022/06/13 11:23:20;;;;;;;0.77;0.65;;;22.30;58.20;;;;;;5045698;28;20085;-19
2022/06/13 11:25:56;;;;;;;1.63;1.13;;;22.30;58.40;;;;;;5043239;28;20134;-19
2022/06/13 11:28:25;;;;;;;1.98;0.90;;;22.30;58.20;;;;;;5056875;28;20487;-19
2022/06/13 11:30:53;;;;;;;1.55;0.80;;;22.30;58.10;;;;;;5046533;28;20044;-19
2022/06/13 11:33:30;;;;;;;1.70;0.90;;;22.30;57.90;;;;;;5072737;28;20048;-20
2022/06/13 11:36:18;;;;;;;0.75;0.70;;;22.40;58.10;;;;;;5060511;28;20126;-21
2022/06/13 11:39:03;;;;;;;2.92;0.90;;;22.40;57.90;;;;;;5049253;28;20052;-19
2022/06/13 11:41:43;;;;;;;1.15;0.75;;;22.40;58.10;;;;;;5060773;28;20110;-20
2022/06/13 11:44:13;;;;;;;1.20;0.90;;;22.30;58.10;;;;;;5030592;28;20124;-20
2022/06/13 11:46:42;;;;;;;4.28;0.82;;;22.40;58.00;;;;;;5060296;28;20732;-18
2022/06/13 11:49:14;;;;;;;3.95;0.90;;;22.30;58.00;;;;;;5059321;28;20057;-20
2022/06/13 11:52:01;;;;;;;1.85;1.05;;;22.40;58.20;;;;;;5057514;28;20040;-19
2022/06/13 11:54:40;;;;;;;1.10;1.00;;;22.30;58.00;;;;;;5063065;28;20051;-19
2022/06/13 11:57:14;;;;;;;1.10;0.82;;;22.30;58.00;;;;;;5060086;28;20639;-19
2022/06/13 12:00:04;;;;;;;0.88;0.70;;;22.30;58.00;;;;;;5067033;28;20056;-20
2022/06/13 12:02:41;;;;;;;1.88;1.63;;;22.40;57.90;;;;;;5064266;28;20131;-19
2022/06/13 12:05:21;;;;;;;2.55;1.42;;;22.40;57.90;;;;;;5058401;28;20106;-20
2022/06/13 12:08:08;;;;;;;2.45;1.25;;;22.40;57.90;;;;;;5067257;28;20041;-21
2022/06/13 12:10:38;;;;;;;3.00;0.80;;;22.40;57.90;;;;;;5057808;28;20045;-18
2022/06/13 12:13:08;;;;;;;4.07;1.15;;;22.40;58.00;;;;;;5072674;28;20059;-19
2022/06/13 12:15:37;;;;;;;1.33;0.95;;;22.40;57.90;;;;;;5049667;28;20045;-20
2022/06/13 12:18:09;;;;;;;1.23;0.90;;;22.50;57.80;;;;;;5058741;28;20033;-20
2022/06/13 12:20:44;;;;;;;2.38;1.13;;;22.50;57.90;;;;;;5061862;28;20052;-19
2022/06/13 12:23:11;;;;;;;1.10;1.00;;;22.50;57.80;;;;;;5050037;28;20071;-19
2022/06/13 12:25:43;;;;;;;1.30;0.93;;;22.40;57.60;;;;;;5059961;28;20037;-20
2022/06/13 12:28:16;;;;;;;1.10;1.02;;;22.40;57.80;;;;;;5032040;28;20045;-18
2022/06/13 12:31:03;;;;;;;0.98;0.90;;;22.40;57.70;;;;;;5033312;28;20051;-21
2022/06/13 12:34:15;;;;;;;1.20;0.80;;;22.40;57.80;;;;;;5048177;28;20043;-20
2022/06/13 12:36:40;;;;;;;1.38;0.80;;;22.40;57.90;;;;;;5031400;28;20048;-20
2022/06/13 12:39:15;;;;;;;1.02;0.90;;;22.40;57.90;;;;;;5072255;28;20059;-19
2022/06/13 12:41:43;;;;;;;1.40;0.98;;;22.40;57.90;;;;;;5067524;28;20127;-19
2022/06/13 12:44:21;;;;;;;1.20;1.00;;;22.40;57.90;;;;;;5070783;28;20071;-19
2022/06/13 12:47:01;;;;;;;1.10;0.55;;;22.40;57.90;;;;;;5072594;28;20040;-20
2022/06/13 12:49:48;;;;;;;1.08;0.98;;;22.50;57.80;;;;;;5049567;28;20053;-18
2022/06/13 12:52:30;;;;;;;1.38;0.82;;;22.50;57.90;;;;;;5050701;28;20138;-18
2022/06/13 12:55:13;;;;;;;1.17;1.08;;;22.50;57.90;;;;;;5070758;28;20040;-19
2022/06/13 12:57:47;;;;;;;1.20;0.77;;;22.40;57.90;;;;;;5042149;28;20521;-21
2022/06/13 13:00:22;;;;;;;;;;;22.40;58.00;;;;;;5040061;28;20048;-23
2022/06/13 13:03:27;;;;;;;0.80;0.80;;;22.40;58.00;;;;;;5063897;28;19923;-20
2022/06/13 13:06:05;;;;;;;1.00;0.77;;;22.50;58.10;;;;;;5051564;28;20054;-19
2022/06/13 13:08:52;;;;;;;0.80;0.75;;;22.50;58.30;;;;;;5069409;28;20044;-22
2022/06/13 13:11:35;;;;;;;0.82;0.73;;;22.50;58.00;;;;;;5061791;28;20052;-19
2022/06/13 13:14:19;;;;;;;0.70;0.70;;;22.50;58.00;;;;;;5052892;28;20098;-19
2022/06/13 13:16:56;;;;;;;0.70;0.52;;;22.50;58.00;;;;;;5034628;28;20044;-19
2022/06/13 13:19:34;;;;;;;1.00;0.70;;;22.50;57.90;;;;;;5052945;28;20182;-19
2022/06/13 13:22:04;;;;;;;1.25;0.63;;;22.50;57.90;;;;;;5037653;28;20041;-18
2022/06/13 13:24:51;;;;;;;1.70;0.80;;;22.50;58.00;;;;;;5057456;28;20055;-18
2022/06/13 13:27:17;;;;;;;1.17;0.60;;;22.50;57.90;;;;;;5064132;28;20041;-19
2022/06/13 13:29:57;;;;;;;3.88;1.45;;;22.50;57.90;;;;;;5051130;28;20041;-20
2022/06/13 13:32:26;;;;;;;0.70;0.60;;;22.50;57.90;;;;;;5040878;28;20045;-18
2022/06/13 13:35:24;;;;;;;1.70;0.90;;;22.60;58.00;;;;;;5051904;28;20521;-18
2022/06/13 13:38:18;;;;;;;0.65;0.50;;;22.60;58.20;;;;;;4698884;28;10000293;-19
2022/06/13 13:40:46;;;;;;;0.77;0.60;;;22.60;57.90;;;;;;5053604;28;20134;-20